• Join FlightAware (Why Join?)
  • Login
  • US Flag 
04:49AM EDT


 

Airport Tracker/Info


-or-


 

Live Flight TrackerFlight Track Log ✈ FLG4208 ✈ 25-Apr-2013 ✈ KAZO - KDTW

Flight Track Log - Related Links

Times and Time Zones

All times are in EDT time to prevent confusion due to time zone crossing. See the FLG4208 flight status page for this flight to view local times or setup timezone preferences in your user account.

Time Position Orientation Groundspeed Altitude Reporting Facility
EDT Latitude Longitude Course Direction KTS MPH feet Rate Location/Type
12:06PM 42.1789 -85.4647 114° Southeast 252 290 4,200  Level Chicago Center
12:07PM 42.1631 -85.3581 101° East 278 320 7,400 3,180 Climbing Chicago Center
12:07PM 42.1567 -85.3092 100° East 285 328 8,800 2,580 Climbing Cleveland Center
12:08PM 42.1556 -85.1982 106° East  Level FlightAware Approximate
12:08PM 42.1364 -85.1928 103° East 292 336 11,000  Level Cleveland Center
12:09PM 42.1366 -85.1092 106° East  Level FlightAware Approximate
12:09PM 42.1144 -85.0594 102° East 327 376 11,000  Level Cleveland Center
12:10PM 42.1175 -85.0203 106° East  Level FlightAware Approximate
12:10PM 42.0925 -84.9292 103° East 346 398 11,000  Level Cleveland Center
12:11PM 42.0700 -84.8017 103° East 351 404 11,900 480 Climbing Cleveland Center
12:12PM 42.0239 -84.6897 119° Southeast 345 397 12,000  Climbing Cleveland Center
12:13PM 41.9653 -84.5797 126° Southeast 351 404 12,000  Level Cleveland Center
12:14PM 41.9042 -84.4811 130° Southeast 351 404 12,000  Level Cleveland Center
12:15PM 41.8317 -84.4042 142° Southeast 344 396 12,000  Level Cleveland Center
12:16PM 41.7578 -84.3078 136° Southeast 373 429 12,000  Level Cleveland Center
12:17PM 41.7808 -84.1672 78° East 304 350 12,000  Level Cleveland Center
12:18PM 41.8083 -84.0933 63° Northeast 383 441 12,000  Level Cleveland Center
12:18PM 41.8244 -84.0386 68° East 327 376 12,000  Level Cleveland Center
12:19PM 41.8706 -83.9631 51° Northeast 374 430 12,000  Level Cleveland Center
12:19PM 41.8903 -83.9306 51° Northeast 347 399 12,000  Level Cleveland Center
12:20PM 41.9311 -83.8853 40° Northeast 371 427 12,000  Level Cleveland Center
12:20PM 41.9658 -83.8367 46° Northeast 352 405 12,000  Level Cleveland Center
12:21PM 42.0156 -83.7806 40° Northeast 370 426 12,000  Level Cleveland Center
12:21PM 42.0436 -83.7428 45° Northeast 358 412 12,000  Level Cleveland Center
12:22PM 42.0808 -83.6719 55° Northeast 366 421 12,000  Level Cleveland Center
12:22PM 42.0883 -83.6303 76° East 348 400 12,000 -540 Level Cleveland Center
12:23PM 42.1011 -83.5386 79° East 364 419 11,500 -840 Descending Cleveland Center
12:23PM 42.1106 -83.4969 73° East 348 400 11,200 -540 Descending Cleveland Center
12:24PM 42.1253 -83.4136 77° East 322 371 11,000 -240 Descending Cleveland Center
12:24PM 42.1303 -83.3775 79° East 335 386 11,000  Level Cleveland Center
12:25PM 42.1611 -83.3058 60° Northeast 322 371 11,000  Level Cleveland Center
12:25PM 42.1764 -83.2786 53° Northeast 307 353 11,000 -840 Level Cleveland Center
12:26PM 42.2361 -83.2139 39° Northeast 320 368 10,100 -1,200 Descending Cleveland Center
12:27PM 42.2922 -83.1375 45° Northeast 311 358 9,000 -1,380 Descending Cleveland Center
12:28PM 42.3661 -83.0872 27° Northeast 294 338 7,500 -1,380 Descending Cleveland Center
12:29PM 42.4339 -83.0447 25° Northeast 282 325 6,400 -780 Descending Cleveland Center
12:30PM 42.4944 -83.0331 North 212 244 6,000 -240 Descending Cleveland Center
12:31PM 42.4931 -83.1033 268° West 194 223 6,000  Level Cleveland Center